sensor_id;sensor_type;location;lat;lon;timestamp;P1;durP1;ratioP1;P2;durP2;ratioP2
21657;SDS011;10990;48.174;9.782;2023-06-22T00:02:02;18.23;;;9.40;;
21657;SDS011;10990;48.174;9.782;2023-06-22T00:04:28;18.98;;;8.85;;
21657;SDS011;10990;48.174;9.782;2023-06-22T00:06:55;13.70;;;8.38;;
21657;SDS011;10990;48.174;9.782;2023-06-22T00:09:22;18.23;;;9.23;;
21657;SDS011;10990;48.174;9.782;2023-06-22T00:11:48;13.93;;;8.25;;
21657;SDS011;10990;48.174;9.782;2023-06-22T00:14:17;17.60;;;8.88;;
21657;SDS011;10990;48.174;9.782;2023-06-22T00:16:43;12.65;;;8.57;;
21657;SDS011;10990;48.174;9.782;2023-06-22T00:19:13;15.13;;;9.25;;
21657;SDS011;10990;48.174;9.782;2023-06-22T00:21:40;17.58;;;9.60;;
21657;SDS011;10990;48.174;9.782;2023-06-22T00:24:07;18.25;;;10.02;;
21657;SDS011;10990;48.174;9.782;2023-06-22T00:26:34;14.52;;;8.73;;
21657;SDS011;10990;48.174;9.782;2023-06-22T00:29:01;16.58;;;9.65;;
21657;SDS011;10990;48.174;9.782;2023-06-22T00:31:31;18.48;;;8.50;;
21657;SDS011;10990;48.174;9.782;2023-06-22T00:33:57;17.77;;;9.43;;
21657;SDS011;10990;48.174;9.782;2023-06-22T00:36:25;14.98;;;9.32;;
21657;SDS011;10990;48.174;9.782;2023-06-22T00:38:52;12.82;;;8.73;;
21657;SDS011;10990;48.174;9.782;2023-06-22T00:41:18;17.52;;;9.48;;
21657;SDS011;10990;48.174;9.782;2023-06-22T00:43:45;15.50;;;9.68;;
21657;SDS011;10990;48.174;9.782;2023-06-22T00:46:12;18.73;;;10.18;;
21657;SDS011;10990;48.174;9.782;2023-06-22T00:48:40;17.70;;;10.60;;
21657;SDS011;10990;48.174;9.782;2023-06-22T00:51:08;20.20;;;10.70;;
21657;SDS011;10990;48.174;9.782;2023-06-22T00:53:38;24.17;;;11.25;;
21657;SDS011;10990;48.174;9.782;2023-06-22T00:56:06;16.13;;;10.57;;
21657;SDS011;10990;48.174;9.782;2023-06-22T00:58:35;19.48;;;11.20;;
21657;SDS011;10990;48.174;9.782;2023-06-22T01:01:02;20.58;;;11.50;;
21657;SDS011;10990;48.174;9.782;2023-06-22T01:03:29;18.33;;;11.98;;
21657;SDS011;10990;48.174;9.782;2023-06-22T01:05:58;20.65;;;12.68;;
21657;SDS011;10990;48.174;9.782;2023-06-22T01:08:36;22.23;;;12.88;;
21657;SDS011;10990;48.174;9.782;2023-06-22T01:11:12;22.33;;;13.20;;
21657;SDS011;10990;48.174;9.782;2023-06-22T01:13:45;22.50;;;13.88;;
21657;SDS011;10990;48.174;9.782;2023-06-22T01:16:20;21.60;;;13.48;;
21657;SDS011;10990;48.174;9.782;2023-06-22T01:18:50;20.80;;;13.48;;
21657;SDS011;10990;48.174;9.782;2023-06-22T01:21:22;27.23;;;14.43;;
21657;SDS011;10990;48.174;9.782;2023-06-22T01:23:53;21.58;;;12.88;;
21657;SDS011;10990;48.174;9.782;2023-06-22T01:26:28;23.52;;;14.10;;
21657;SDS011;10990;48.174;9.782;2023-06-22T01:29:05;28.65;;;15.43;;
21657;SDS011;10990;48.174;9.782;2023-06-22T01:31:34;24.63;;;15.00;;
21657;SDS011;10990;48.174;9.782;2023-06-22T01:34:02;24.85;;;14.93;;
21657;SDS011;10990;48.174;9.782;2023-06-22T01:36:31;22.13;;;15.07;;
21657;SDS011;10990;48.174;9.782;2023-06-22T01:38:59;23.90;;;14.52;;
21657;SDS011;10990;48.174;9.782;2023-06-22T01:41:29;29.23;;;15.38;;
21657;SDS011;10990;48.174;9.782;2023-06-22T01:43:57;26.15;;;15.43;;
21657;SDS011;10990;48.174;9.782;2023-06-22T01:46:27;23.42;;;15.32;;
21657;SDS011;10990;48.174;9.782;2023-06-22T01:48:55;27.95;;;16.08;;
21657;SDS011;10990;48.174;9.782;2023-06-22T01:51:22;26.63;;;15.02;;
21657;SDS011;10990;48.174;9.782;2023-06-22T01:53:49;26.38;;;16.13;;
21657;SDS011;10990;48.174;9.782;2023-06-22T01:56:18;25.80;;;15.43;;
21657;SDS011;10990;48.174;9.782;2023-06-22T01:58:48;25.80;;;15.68;;
21657;SDS011;10990;48.174;9.782;2023-06-22T02:01:17;22.42;;;16.20;;
21657;SDS011;10990;48.174;9.782;2023-06-22T02:03:53;27.88;;;16.42;;
21657;SDS011;10990;48.174;9.782;2023-06-22T02:06:30;28.02;;;16.27;;
21657;SDS011;10990;48.174;9.782;2023-06-22T02:09:02;27.15;;;18.52;;
21657;SDS011;10990;48.174;9.782;2023-06-22T02:11:32;31.88;;;18.10;;
21657;SDS011;10990;48.174;9.782;2023-06-22T02:14:01;28.70;;;17.10;;
21657;SDS011;10990;48.174;9.782;2023-06-22T02:16:28;26.20;;;15.65;;
21657;SDS011;10990;48.174;9.782;2023-06-22T02:18:59;25.35;;;16.08;;
21657;SDS011;10990;48.174;9.782;2023-06-22T02:21:28;24.70;;;15.32;;
21657;SDS011;10990;48.174;9.782;2023-06-22T02:23:55;24.58;;;15.00;;
21657;SDS011;10990;48.174;9.782;2023-06-22T02:26:22;21.80;;;14.23;;
21657;SDS011;10990;48.174;9.782;2023-06-22T02:28:50;22.30;;;13.10;;
21657;SDS011;10990;48.174;9.782;2023-06-22T02:31:16;19.77;;;11.50;;
21657;SDS011;10990;48.174;9.782;2023-06-22T02:33:44;21.63;;;12.98;;
21657;SDS011;10990;48.174;9.782;2023-06-22T02:36:13;22.55;;;13.18;;
21657;SDS011;10990;48.174;9.782;2023-06-22T02:38:40;23.52;;;13.60;;
21657;SDS011;10990;48.174;9.782;2023-06-22T02:41:10;21.27;;;13.65;;
21657;SDS011;10990;48.174;9.782;2023-06-22T02:43:38;20.08;;;12.85;;
21657;SDS011;10990;48.174;9.782;2023-06-22T02:46:05;20.83;;;12.48;;
21657;SDS011;10990;48.174;9.782;2023-06-22T02:48:32;19.52;;;12.32;;
21657;SDS011;10990;48.174;9.782;2023-06-22T02:50:58;21.85;;;13.35;;
21657;SDS011;10990;48.174;9.782;2023-06-22T02:53:27;23.27;;;13.68;;
21657;SDS011;10990;48.174;9.782;2023-06-22T02:55:53;18.65;;;12.70;;
21657;SDS011;10990;48.174;9.782;2023-06-22T02:58:20;27.88;;;14.23;;
21657;SDS011;10990;48.174;9.782;2023-06-22T03:00:47;26.50;;;15.18;;
21657;SDS011;10990;48.174;9.782;2023-06-22T03:03:13;23.80;;;14.10;;
21657;SDS011;10990;48.174;9.782;2023-06-22T03:05:40;20.45;;;12.52;;
21657;SDS011;10990;48.174;9.782;2023-06-22T03:08:07;25.13;;;13.73;;
21657;SDS011;10990;48.174;9.782;2023-06-22T03:10:36;23.17;;;13.75;;
21657;SDS011;10990;48.174;9.782;2023-06-22T03:13:02;23.88;;;14.00;;
21657;SDS011;10990;48.174;9.782;2023-06-22T03:15:30;24.40;;;14.10;;
21657;SDS011;10990;48.174;9.782;2023-06-22T03:17:59;23.13;;;14.35;;
21657;SDS011;10990;48.174;9.782;2023-06-22T03:20:26;25.38;;;14.20;;
21657;SDS011;10990;48.174;9.782;2023-06-22T03:22:59;22.63;;;13.27;;
21657;SDS011;10990;48.174;9.782;2023-06-22T03:25:26;23.67;;;13.00;;
21657;SDS011;10990;48.174;9.782;2023-06-22T03:27:55;23.17;;;13.70;;
21657;SDS011;10990;48.174;9.782;2023-06-22T03:30:22;26.73;;;13.68;;
21657;SDS011;10990;48.174;9.782;2023-06-22T03:32:49;22.42;;;13.80;;
21657;SDS011;10990;48.174;9.782;2023-06-22T03:35:16;18.77;;;12.48;;
21657;SDS011;10990;48.174;9.782;2023-06-22T03:37:42;21.85;;;12.13;;
21657;SDS011;10990;48.174;9.782;2023-06-22T03:40:09;22.02;;;12.30;;
21657;SDS011;10990;48.174;9.782;2023-06-22T03:42:37;18.40;;;11.80;;
21657;SDS011;10990;48.174;9.782;2023-06-22T03:45:06;24.67;;;14.20;;
21657;SDS011;10990;48.174;9.782;2023-06-22T03:47:33;20.50;;;13.02;;
21657;SDS011;10990;48.174;9.782;2023-06-22T03:50:00;20.77;;;12.20;;
21657;SDS011;10990;48.174;9.782;2023-06-22T03:52:28;19.67;;;11.45;;
21657;SDS011;10990;48.174;9.782;2023-06-22T03:54:55;21.35;;;11.75;;
21657;SDS011;10990;48.174;9.782;2023-06-22T03:57:22;22.23;;;13.13;;
21657;SDS011;10990;48.174;9.782;2023-06-22T03:59:49;18.05;;;12.23;;
21657;SDS011;10990;48.174;9.782;2023-06-22T04:02:17;21.25;;;12.10;;
21657;SDS011;10990;48.174;9.782;2023-06-22T04:04:44;22.80;;;12.98;;
21657;SDS011;10990;48.174;9.782;2023-06-22T04:07:11;21.33;;;12.82;;
21657;SDS011;10990;48.174;9.782;2023-06-22T04:09:37;19.38;;;12.13;;
21657;SDS011;10990;48.174;9.782;2023-06-22T04:12:05;19.40;;;12.10;;
21657;SDS011;10990;48.174;9.782;2023-06-22T04:14:32;18.88;;;11.85;;
21657;SDS011;10990;48.174;9.782;2023-06-22T04:16:58;20.42;;;13.10;;
21657;SDS011;10990;48.174;9.782;2023-06-22T04:19:27;19.15;;;12.43;;
21657;SDS011;10990;48.174;9.782;2023-06-22T04:21:53;19.63;;;12.60;;
21657;SDS011;10990;48.174;9.782;2023-06-22T04:24:20;21.48;;;12.60;;
21657;SDS011;10990;48.174;9.782;2023-06-22T04:26:47;23.10;;;12.57;;
21657;SDS011;10990;48.174;9.782;2023-06-22T04:29:13;25.83;;;13.18;;
21657;SDS011;10990;48.174;9.782;2023-06-22T04:31:40;20.02;;;12.63;;
21657;SDS011;10990;48.174;9.782;2023-06-22T04:34:07;23.08;;;14.20;;
21657;SDS011;10990;48.174;9.782;2023-06-22T04:36:36;27.88;;;13.85;;
21657;SDS011;10990;48.174;9.782;2023-06-22T04:39:04;25.25;;;13.27;;
21657;SDS011;10990;48.174;9.782;2023-06-22T04:41:32;20.30;;;11.82;;
21657;SDS011;10990;48.174;9.782;2023-06-22T04:44:07;18.13;;;11.50;;
21657;SDS011;10990;48.174;9.782;2023-06-22T04:46:37;19.90;;;13.10;;
21657;SDS011;10990;48.174;9.782;2023-06-22T04:49:05;18.30;;;11.80;;
21657;SDS011;10990;48.174;9.782;2023-06-22T04:51:38;22.88;;;13.32;;
21657;SDS011;10990;48.174;9.782;2023-06-22T04:54:06;19.52;;;12.88;;
21657;SDS011;10990;48.174;9.782;2023-06-22T04:56:33;21.60;;;11.80;;
21657;SDS011;10990;48.174;9.782;2023-06-22T04:59:00;21.65;;;13.30;;
21657;SDS011;10990;48.174;9.782;2023-06-22T05:01:28;21.33;;;12.32;;
21657;SDS011;10990;48.174;9.782;2023-06-22T05:03:56;19.00;;;11.32;;
21657;SDS011;10990;48.174;9.782;2023-06-22T05:06:23;18.45;;;11.50;;
21657;SDS011;10990;48.174;9.782;2023-06-22T05:08:52;20.88;;;12.50;;
21657;SDS011;10990;48.174;9.782;2023-06-22T05:11:22;22.85;;;11.95;;
21657;SDS011;10990;48.174;9.782;2023-06-22T05:13:49;18.85;;;12.15;;
21657;SDS011;10990;48.174;9.782;2023-06-22T05:16:16;20.15;;;11.85;;
21657;SDS011;10990;48.174;9.782;2023-06-22T05:18:42;21.05;;;11.00;;
21657;SDS011;10990;48.174;9.782;2023-06-22T05:21:09;17.25;;;10.98;;
21657;SDS011;10990;48.174;9.782;2023-06-22T05:23:36;21.08;;;12.30;;
21657;SDS011;10990;48.174;9.782;2023-06-22T05:26:04;22.55;;;11.10;;
21657;SDS011;10990;48.174;9.782;2023-06-22T05:28:34;23.05;;;11.60;;
21657;SDS011;10990;48.174;9.782;2023-06-22T05:31:01;17.63;;;11.68;;
21657;SDS011;10990;48.174;9.782;2023-06-22T05:33:29;16.23;;;10.18;;
21657;SDS011;10990;48.174;9.782;2023-06-22T05:35:55;18.30;;;11.32;;
21657;SDS011;10990;48.174;9.782;2023-06-22T05:38:22;18.17;;;10.80;;
21657;SDS011;10990;48.174;9.782;2023-06-22T05:40:49;19.15;;;10.60;;
21657;SDS011;10990;48.174;9.782;2023-06-22T05:43:17;16.25;;;10.80;;
21657;SDS011;10990;48.174;9.782;2023-06-22T05:45:43;17.10;;;10.68;;
21657;SDS011;10990;48.174;9.782;2023-06-22T05:48:10;23.75;;;11.02;;
21657;SDS011;10990;48.174;9.782;2023-06-22T05:50:37;19.08;;;10.60;;
21657;SDS011;10990;48.174;9.782;2023-06-22T05:53:03;15.85;;;10.18;;
21657;SDS011;10990;48.174;9.782;2023-06-22T05:55:31;17.48;;;9.82;;
21657;SDS011;10990;48.174;9.782;2023-06-22T05:57:58;16.33;;;9.63;;
21657;SDS011;10990;48.174;9.782;2023-06-22T06:00:27;18.45;;;10.02;;
21657;SDS011;10990;48.174;9.782;2023-06-22T06:02:53;16.58;;;9.80;;
21657;SDS011;10990;48.174;9.782;2023-06-22T06:05:20;16.08;;;9.23;;
21657;SDS011;10990;48.174;9.782;2023-06-22T06:07:49;15.90;;;8.82;;
21657;SDS011;10990;48.174;9.782;2023-06-22T06:10:15;13.60;;;8.90;;
21657;SDS011;10990;48.174;9.782;2023-06-22T06:12:42;13.68;;;8.60;;
21657;SDS011;10990;48.174;9.782;2023-06-22T06:15:09;14.35;;;9.23;;
21657;SDS011;10990;48.174;9.782;2023-06-22T06:17:37;14.52;;;9.00;;
21657;SDS011;10990;48.174;9.782;2023-06-22T06:20:11;13.02;;;8.60;;
21657;SDS011;10990;48.174;9.782;2023-06-22T06:22:38;13.20;;;8.23;;
21657;SDS011;10990;48.174;9.782;2023-06-22T06:25:06;15.80;;;8.68;;
21657;SDS011;10990;48.174;9.782;2023-06-22T06:27:33;14.50;;;8.70;;
21657;SDS011;10990;48.174;9.782;2023-06-22T06:29:59;14.18;;;8.50;;
21657;SDS011;10990;48.174;9.782;2023-06-22T06:32:26;19.38;;;8.52;;
21657;SDS011;10990;48.174;9.782;2023-06-22T06:34:54;15.73;;;8.27;;
21657;SDS011;10990;48.174;9.782;2023-06-22T06:37:21;13.88;;;8.23;;
21657;SDS011;10990;48.174;9.782;2023-06-22T06:39:47;14.18;;;7.63;;
21657;SDS011;10990;48.174;9.782;2023-06-22T06:42:14;16.02;;;7.78;;
21657;SDS011;10990;48.174;9.782;2023-06-22T06:44:41;14.27;;;7.72;;
21657;SDS011;10990;48.174;9.782;2023-06-22T06:47:07;9.93;;;6.82;;
21657;SDS011;10990;48.174;9.782;2023-06-22T06:49:34;13.05;;;8.10;;
21657;SDS011;10990;48.174;9.782;2023-06-22T06:52:02;13.32;;;8.65;;
21657;SDS011;10990;48.174;9.782;2023-06-22T06:54:29;14.07;;;8.48;;
21657;SDS011;10990;48.174;9.782;2023-06-22T06:56:56;14.27;;;8.43;;
21657;SDS011;10990;48.174;9.782;2023-06-22T06:59:23;15.10;;;9.27;;
21657;SDS011;10990;48.174;9.782;2023-06-22T07:01:49;16.00;;;8.95;;
21657;SDS011;10990;48.174;9.782;2023-06-22T07:04:16;11.93;;;8.40;;
21657;SDS011;10990;48.174;9.782;2023-06-22T07:06:43;12.15;;;8.57;;
21657;SDS011;10990;48.174;9.782;2023-06-22T07:09:11;12.23;;;8.27;;
21657;SDS011;10990;48.174;9.782;2023-06-22T07:11:38;13.38;;;8.57;;
21657;SDS011;10990;48.174;9.782;2023-06-22T07:14:04;14.70;;;8.10;;
21657;SDS011;10990;48.174;9.782;2023-06-22T07:16:31;12.68;;;8.23;;
21657;SDS011;10990;48.174;9.782;2023-06-22T07:18:58;14.13;;;8.95;;
21657;SDS011;10990;48.174;9.782;2023-06-22T07:21:25;11.13;;;8.05;;
21657;SDS011;10990;48.174;9.782;2023-06-22T07:23:52;10.18;;;7.18;;
21657;SDS011;10990;48.174;9.782;2023-06-22T07:26:20;15.07;;;8.40;;
21657;SDS011;10990;48.174;9.782;2023-06-22T07:28:47;11.27;;;7.13;;
21657;SDS011;10990;48.174;9.782;2023-06-22T07:31:16;13.18;;;7.63;;
21657;SDS011;10990;48.174;9.782;2023-06-22T07:33:42;11.82;;;7.70;;
21657;SDS011;10990;48.174;9.782;2023-06-22T07:36:09;14.23;;;8.40;;
21657;SDS011;10990;48.174;9.782;2023-06-22T07:38:36;11.68;;;7.47;;
21657;SDS011;10990;48.174;9.782;2023-06-22T07:41:02;11.32;;;7.97;;
21657;SDS011;10990;48.174;9.782;2023-06-22T07:43:31;11.18;;;7.80;;
21657;SDS011;10990;48.174;9.782;2023-06-22T07:45:59;11.80;;;7.35;;
21657;SDS011;10990;48.174;9.782;2023-06-22T07:48:26;12.57;;;8.30;;
21657;SDS011;10990;48.174;9.782;2023-06-22T07:50:52;14.75;;;8.65;;
21657;SDS011;10990;48.174;9.782;2023-06-22T07:53:19;17.58;;;8.65;;
21657;SDS011;10990;48.174;9.782;2023-06-22T07:55:46;14.77;;;9.00;;
21657;SDS011;10990;48.174;9.782;2023-06-22T07:58:13;12.77;;;7.80;;
21657;SDS011;10990;48.174;9.782;2023-06-22T08:00:42;11.00;;;7.40;;
21657;SDS011;10990;48.174;9.782;2023-06-22T08:03:09;12.10;;;7.18;;
21657;SDS011;10990;48.174;9.782;2023-06-22T08:05:35;10.30;;;6.90;;
21657;SDS011;10990;48.174;9.782;2023-06-22T08:08:02;11.73;;;8.05;;
21657;SDS011;10990;48.174;9.782;2023-06-22T08:10:29;12.20;;;7.28;;
21657;SDS011;10990;48.174;9.782;2023-06-22T08:12:56;18.52;;;9.25;;
21657;SDS011;10990;48.174;9.782;2023-06-22T08:15:22;10.48;;;6.95;;
21657;SDS011;10990;48.174;9.782;2023-06-22T08:17:50;12.00;;;7.47;;
21657;SDS011;10990;48.174;9.782;2023-06-22T08:20:17;14.93;;;7.80;;
21657;SDS011;10990;48.174;9.782;2023-06-22T08:22:44;10.65;;;6.93;;
21657;SDS011;10990;48.174;9.782;2023-06-22T08:25:11;11.13;;;6.70;;
21657;SDS011;10990;48.174;9.782;2023-06-22T08:27:38;11.40;;;6.43;;
21657;SDS011;10990;48.174;9.782;2023-06-22T08:30:06;15.15;;;8.80;;
21657;SDS011;10990;48.174;9.782;2023-06-22T08:32:33;13.25;;;8.02;;
21657;SDS011;10990;48.174;9.782;2023-06-22T08:35:01;13.38;;;8.73;;
21657;SDS011;10990;48.174;9.782;2023-06-22T08:37:28;14.52;;;8.43;;
21657;SDS011;10990;48.174;9.782;2023-06-22T08:39:56;10.70;;;6.53;;
21657;SDS011;10990;48.174;9.782;2023-06-22T08:42:24;11.80;;;6.90;;
21657;SDS011;10990;48.174;9.782;2023-06-22T08:44:51;10.38;;;6.68;;
21657;SDS011;10990;48.174;9.782;2023-06-22T08:47:18;10.50;;;6.60;;
21657;SDS011;10990;48.174;9.782;2023-06-22T08:49:46;11.02;;;6.85;;
21657;SDS011;10990;48.174;9.782;2023-06-22T08:52:14;8.77;;;6.28;;
21657;SDS011;10990;48.174;9.782;2023-06-22T08:54:41;9.38;;;6.35;;
21657;SDS011;10990;48.174;9.782;2023-06-22T08:57:08;8.27;;;6.32;;
21657;SDS011;10990;48.174;9.782;2023-06-22T08:59:35;11.65;;;6.20;;
21657;SDS011;10990;48.174;9.782;2023-06-22T09:02:01;13.23;;;6.07;;
21657;SDS011;10990;48.174;9.782;2023-06-22T09:04:28;11.73;;;7.20;;
21657;SDS011;10990;48.174;9.782;2023-06-22T09:06:55;10.20;;;6.93;;
21657;SDS011;10990;48.174;9.782;2023-06-22T09:09:23;11.13;;;6.95;;
21657;SDS011;10990;48.174;9.782;2023-06-22T09:11:50;12.48;;;6.35;;
21657;SDS011;10990;48.174;9.782;2023-06-22T09:14:16;8.93;;;6.03;;
21657;SDS011;10990;48.174;9.782;2023-06-22T09:16:43;10.32;;;7.35;;
21657;SDS011;10990;48.174;9.782;2023-06-22T09:19:10;13.13;;;7.82;;
21657;SDS011;10990;48.174;9.782;2023-06-22T09:21:37;11.18;;;6.55;;
21657;SDS011;10990;48.174;9.782;2023-06-22T09:24:04;10.68;;;7.03;;
21657;SDS011;10990;48.174;9.782;2023-06-22T09:26:33;11.60;;;6.63;;
21657;SDS011;10990;48.174;9.782;2023-06-22T09:28:59;12.82;;;7.70;;
21657;SDS011;10990;48.174;9.782;2023-06-22T09:31:26;14.13;;;7.65;;
21657;SDS011;10990;48.174;9.782;2023-06-22T09:33:53;12.40;;;8.10;;
21657;SDS011;10990;48.174;9.782;2023-06-22T09:36:20;10.10;;;6.75;;
21657;SDS011;10990;48.174;9.782;2023-06-22T09:38:47;10.52;;;6.72;;
21657;SDS011;10990;48.174;9.782;2023-06-22T09:41:21;10.35;;;7.80;;
21657;SDS011;10990;48.174;9.782;2023-06-22T09:43:49;14.43;;;8.50;;
21657;SDS011;10990;48.174;9.782;2023-06-22T09:46:16;13.38;;;9.02;;
21657;SDS011;10990;48.174;9.782;2023-06-22T09:48:43;14.02;;;8.27;;
21657;SDS011;10990;48.174;9.782;2023-06-22T09:51:10;13.75;;;7.63;;
21657;SDS011;10990;48.174;9.782;2023-06-22T09:53:38;11.02;;;6.88;;
21657;SDS011;10990;48.174;9.782;2023-06-22T09:56:04;12.05;;;7.65;;
21657;SDS011;10990;48.174;9.782;2023-06-22T09:58:31;13.00;;;8.23;;
21657;SDS011;10990;48.174;9.782;2023-06-22T10:00:59;10.48;;;7.30;;
21657;SDS011;10990;48.174;9.782;2023-06-22T10:03:26;10.98;;;7.72;;
21657;SDS011;10990;48.174;9.782;2023-06-22T10:05:53;12.20;;;7.63;;
21657;SDS011;10990;48.174;9.782;2023-06-22T10:08:19;13.93;;;8.13;;
21657;SDS011;10990;48.174;9.782;2023-06-22T10:10:46;8.80;;;6.53;;
21657;SDS011;10990;48.174;9.782;2023-06-22T10:13:13;12.80;;;7.72;;
21657;SDS011;10990;48.174;9.782;2023-06-22T10:15:40;11.88;;;7.68;;
21657;SDS011;10990;48.174;9.782;2023-06-22T10:18:09;12.30;;;8.00;;
21657;SDS011;10990;48.174;9.782;2023-06-22T10:20:36;13.88;;;7.68;;
21657;SDS011;10990;48.174;9.782;2023-06-22T10:23:03;13.43;;;8.50;;
21657;SDS011;10990;48.174;9.782;2023-06-22T10:25:29;10.43;;;8.20;;
21657;SDS011;10990;48.174;9.782;2023-06-22T10:27:56;14.82;;;9.18;;
21657;SDS011;10990;48.174;9.782;2023-06-22T10:30:23;16.23;;;9.30;;
21657;SDS011;10990;48.174;9.782;2023-06-22T10:32:50;14.35;;;8.63;;
21657;SDS011;10990;48.174;9.782;2023-06-22T10:35:18;15.05;;;8.45;;
21657;SDS011;10990;48.174;9.782;2023-06-22T10:37:45;19.42;;;9.70;;
21657;SDS011;10990;48.174;9.782;2023-06-22T10:40:13;13.65;;;8.90;;
21657;SDS011;10990;48.174;9.782;2023-06-22T10:42:40;13.63;;;7.63;;
21657;SDS011;10990;48.174;9.782;2023-06-22T10:45:08;12.30;;;8.63;;
21657;SDS011;10990;48.174;9.782;2023-06-22T10:47:35;13.50;;;7.57;;
21657;SDS011;10990;48.174;9.782;2023-06-22T10:50:03;17.00;;;8.98;;
21657;SDS011;10990;48.174;9.782;2023-06-22T10:52:31;13.55;;;8.73;;
21657;SDS011;10990;48.174;9.782;2023-06-22T10:54:58;14.27;;;8.90;;
21657;SDS011;10990;48.174;9.782;2023-06-22T10:57:25;15.95;;;7.45;;
21657;SDS011;10990;48.174;9.782;2023-06-22T10:59:52;11.00;;;7.13;;
21657;SDS011;10990;48.174;9.782;2023-06-22T11:02:18;14.57;;;8.45;;
21657;SDS011;10990;48.174;9.782;2023-06-22T11:04:45;20.13;;;9.27;;
21657;SDS011;10990;48.174;9.782;2023-06-22T11:07:12;15.75;;;9.77;;
21657;SDS011;10990;48.174;9.782;2023-06-22T11:09:41;12.88;;;7.63;;
21657;SDS011;10990;48.174;9.782;2023-06-22T11:12:09;10.32;;;6.63;;
21657;SDS011;10990;48.174;9.782;2023-06-22T11:14:36;9.57;;;7.20;;
21657;SDS011;10990;48.174;9.782;2023-06-22T11:17:03;13.93;;;8.00;;
21657;SDS011;10990;48.174;9.782;2023-06-22T11:19:29;16.65;;;8.48;;
21657;SDS011;10990;48.174;9.782;2023-06-22T11:21:56;14.98;;;7.63;;
21657;SDS011;10990;48.174;9.782;2023-06-22T11:24:23;15.45;;;10.15;;
21657;SDS011;10990;48.174;9.782;2023-06-22T11:26:51;14.50;;;8.73;;
21657;SDS011;10990;48.174;9.782;2023-06-22T11:29:18;11.18;;;7.63;;
21657;SDS011;10990;48.174;9.782;2023-06-22T11:31:44;15.00;;;8.90;;
21657;SDS011;10990;48.174;9.782;2023-06-22T11:34:11;14.63;;;7.88;;
21657;SDS011;10990;48.174;9.782;2023-06-22T11:36:38;13.02;;;7.32;;
21657;SDS011;10990;48.174;9.782;2023-06-22T11:39:04;9.60;;;6.50;;
21657;SDS011;10990;48.174;9.782;2023-06-22T11:41:31;13.13;;;6.88;;
21657;SDS011;10990;48.174;9.782;2023-06-22T11:43:59;12.23;;;6.43;;
21657;SDS011;10990;48.174;9.782;2023-06-22T11:46:26;11.60;;;6.85;;
21657;SDS011;10990;48.174;9.782;2023-06-22T11:48:53;11.98;;;6.65;;
21657;SDS011;10990;48.174;9.782;2023-06-22T11:51:23;11.60;;;7.07;;
21657;SDS011;10990;48.174;9.782;2023-06-22T11:53:50;18.40;;;7.13;;
21657;SDS011;10990;48.174;9.782;2023-06-22T11:56:16;12.82;;;6.93;;
21657;SDS011;10990;48.174;9.782;2023-06-22T11:58:43;10.75;;;6.38;;
21657;SDS011;10990;48.174;9.782;2023-06-22T12:01:11;11.82;;;6.82;;
21657;SDS011;10990;48.174;9.782;2023-06-22T12:03:40;13.70;;;6.40;;
21657;SDS011;10990;48.174;9.782;2023-06-22T12:06:08;15.65;;;6.45;;
21657;SDS011;10990;48.174;9.782;2023-06-22T12:08:35;13.43;;;6.60;;
21657;SDS011;10990;48.174;9.782;2023-06-22T12:11:01;11.80;;;6.53;;
21657;SDS011;10990;48.174;9.782;2023-06-22T12:13:28;12.57;;;6.22;;
21657;SDS011;10990;48.174;9.782;2023-06-22T12:15:55;13.13;;;7.28;;
21657;SDS011;10990;48.174;9.782;2023-06-22T12:18:23;11.27;;;6.32;;
21657;SDS011;10990;48.174;9.782;2023-06-22T12:20:50;12.25;;;7.10;;
21657;SDS011;10990;48.174;9.782;2023-06-22T12:23:16;10.18;;;6.53;;
21657;SDS011;10990;48.174;9.782;2023-06-22T12:25:45;18.08;;;7.72;;
21657;SDS011;10990;48.174;9.782;2023-06-22T12:28:11;13.23;;;6.28;;
21657;SDS011;10990;48.174;9.782;2023-06-22T12:30:39;10.68;;;5.72;;
21657;SDS011;10990;48.174;9.782;2023-06-22T12:33:05;12.95;;;6.30;;
21657;SDS011;10990;48.174;9.782;2023-06-22T12:35:34;12.60;;;6.28;;
21657;SDS011;10990;48.174;9.782;2023-06-22T12:38:01;13.25;;;5.93;;
21657;SDS011;10990;48.174;9.782;2023-06-22T12:40:28;10.23;;;6.00;;
21657;SDS011;10990;48.174;9.782;2023-06-22T12:42:54;12.73;;;6.15;;
21657;SDS011;10990;48.174;9.782;2023-06-22T12:45:21;10.98;;;5.75;;
21657;SDS011;10990;48.174;9.782;2023-06-22T12:47:48;15.60;;;6.60;;
21657;SDS011;10990;48.174;9.782;2023-06-22T12:50:15;10.20;;;5.88;;
21657;SDS011;10990;48.174;9.782;2023-06-22T12:52:43;8.68;;;5.32;;
21657;SDS011;10990;48.174;9.782;2023-06-22T12:55:09;13.65;;;6.90;;
21657;SDS011;10990;48.174;9.782;2023-06-22T12:57:36;11.13;;;6.03;;
21657;SDS011;10990;48.174;9.782;2023-06-22T13:00:03;12.07;;;6.15;;
21657;SDS011;10990;48.174;9.782;2023-06-22T13:02:33;16.70;;;6.20;;
21657;SDS011;10990;48.174;9.782;2023-06-22T13:05:00;11.93;;;6.15;;
21657;SDS011;10990;48.174;9.782;2023-06-22T13:07:28;9.77;;;5.70;;
21657;SDS011;10990;48.174;9.782;2023-06-22T13:09:56;12.18;;;6.22;;
21657;SDS011;10990;48.174;9.782;2023-06-22T13:12:22;9.98;;;5.75;;
21657;SDS011;10990;48.174;9.782;2023-06-22T13:14:49;13.75;;;6.00;;
21657;SDS011;10990;48.174;9.782;2023-06-22T13:17:16;10.63;;;5.90;;
21657;SDS011;10990;48.174;9.782;2023-06-22T13:19:42;10.70;;;6.20;;
21657;SDS011;10990;48.174;9.782;2023-06-22T13:22:25;10.38;;;5.53;;
21657;SDS011;10990;48.174;9.782;2023-06-22T13:24:53;12.48;;;5.80;;
21657;SDS011;10990;48.174;9.782;2023-06-22T13:27:21;10.73;;;5.78;;
21657;SDS011;10990;48.174;9.782;2023-06-22T13:29:48;12.52;;;6.43;;
21657;SDS011;10990;48.174;9.782;2023-06-22T13:32:15;10.15;;;6.05;;
21657;SDS011;10990;48.174;9.782;2023-06-22T13:34:41;11.18;;;5.80;;
21657;SDS011;10990;48.174;9.782;2023-06-22T13:37:08;9.80;;;5.93;;
21657;SDS011;10990;48.174;9.782;2023-06-22T13:39:35;11.25;;;6.60;;
21657;SDS011;10990;48.174;9.782;2023-06-22T13:42:01;10.68;;;5.72;;
21657;SDS011;10990;48.174;9.782;2023-06-22T13:44:29;11.48;;;5.78;;
21657;SDS011;10990;48.174;9.782;2023-06-22T13:46:56;16.95;;;7.78;;
21657;SDS011;10990;48.174;9.782;2023-06-22T13:49:23;12.00;;;6.13;;
21657;SDS011;10990;48.174;9.782;2023-06-22T13:51:50;10.52;;;6.43;;
21657;SDS011;10990;48.174;9.782;2023-06-22T13:54:16;11.68;;;6.70;;
21657;SDS011;10990;48.174;9.782;2023-06-22T13:56:43;15.95;;;7.25;;
21657;SDS011;10990;48.174;9.782;2023-06-22T13:59:10;16.23;;;6.88;;
21657;SDS011;10990;48.174;9.782;2023-06-22T14:01:38;13.95;;;7.70;;
21657;SDS011;10990;48.174;9.782;2023-06-22T14:04:05;10.10;;;6.13;;
21657;SDS011;10990;48.174;9.782;2023-06-22T14:06:32;12.95;;;6.15;;
21657;SDS011;10990;48.174;9.782;2023-06-22T14:08:58;12.48;;;6.03;;
21657;SDS011;10990;48.174;9.782;2023-06-22T14:11:25;11.35;;;6.68;;
21657;SDS011;10990;48.174;9.782;2023-06-22T14:13:52;13.85;;;6.45;;
21657;SDS011;10990;48.174;9.782;2023-06-22T14:16:19;13.15;;;6.38;;
21657;SDS011;10990;48.174;9.782;2023-06-22T14:18:47;11.32;;;6.20;;
21657;SDS011;10990;48.174;9.782;2023-06-22T14:21:13;10.43;;;6.15;;
21657;SDS011;10990;48.174;9.782;2023-06-22T14:23:40;10.88;;;6.25;;
21657;SDS011;10990;48.174;9.782;2023-06-22T14:26:07;15.98;;;6.78;;
21657;SDS011;10990;48.174;9.782;2023-06-22T14:28:34;11.52;;;6.90;;
21657;SDS011;10990;48.174;9.782;2023-06-22T14:31:00;12.88;;;6.63;;
21657;SDS011;10990;48.174;9.782;2023-06-22T14:33:27;16.60;;;6.40;;